sensor_id;sensor_type;location;lat;lon;timestamp;P1;durP1;ratioP1;P2;durP2;ratioP2
47413;SDS011;33163;0.000;0.000;2023-04-24T00:01:47;1.50;;;0.82;;
47413;SDS011;33163;0.000;0.000;2023-04-24T00:04:15;2.80;;;1.23;;
47413;SDS011;33163;0.000;0.000;2023-04-24T00:06:42;3.67;;;1.20;;
47413;SDS011;33163;0.000;0.000;2023-04-24T00:09:09;1.00;;;0.85;;
47413;SDS011;33163;0.000;0.000;2023-04-24T00:11:36;2.33;;;1.05;;
47413;SDS011;33163;0.000;0.000;2023-04-24T00:14:03;2.45;;;1.27;;
47413;SDS011;33163;0.000;0.000;2023-04-24T00:16:30;1.17;;;1.00;;
47413;SDS011;33163;0.000;0.000;2023-04-24T00:18:58;1.92;;;1.20;;
47413;SDS011;33163;0.000;0.000;2023-04-24T00:21:25;1.85;;;0.90;;
47413;SDS011;33163;0.000;0.000;2023-04-24T00:23:52;1.75;;;1.13;;
47413;SDS011;33163;0.000;0.000;2023-04-24T00:26:19;2.03;;;1.00;;
47413;SDS011;33163;0.000;0.000;2023-04-24T00:28:46;1.30;;;1.20;;
47413;SDS011;33163;0.000;0.000;2023-04-24T00:31:13;2.33;;;0.70;;
47413;SDS011;33163;0.000;0.000;2023-04-24T00:33:39;1.10;;;1.00;;
47413;SDS011;33163;0.000;0.000;2023-04-24T00:36:08;2.03;;;0.93;;
47413;SDS011;33163;0.000;0.000;2023-04-24T00:38:34;2.95;;;1.05;;
47413;SDS011;33163;0.000;0.000;2023-04-24T00:41:01;1.05;;;0.73;;
47413;SDS011;33163;0.000;0.000;2023-04-24T00:43:28;2.78;;;1.02;;
47413;SDS011;33163;0.000;0.000;2023-04-24T00:45:55;0.60;;;0.60;;
47413;SDS011;33163;0.000;0.000;2023-04-24T00:48:22;3.05;;;1.08;;
47413;SDS011;33163;0.000;0.000;2023-04-24T00:50:49;2.80;;;0.90;;
47413;SDS011;33163;0.000;0.000;2023-04-24T00:53:18;2.08;;;0.98;;
47413;SDS011;33163;0.000;0.000;2023-04-24T00:55:44;1.33;;;0.88;;
47413;SDS011;33163;0.000;0.000;2023-04-24T00:58:12;1.27;;;0.77;;
47413;SDS011;33163;0.000;0.000;2023-04-24T01:00:39;4.50;;;1.10;;
47413;SDS011;33163;0.000;0.000;2023-04-24T01:03:06;7.85;;;1.52;;
47413;SDS011;33163;0.000;0.000;2023-04-24T01:05:33;2.45;;;1.05;;
47413;SDS011;33163;0.000;0.000;2023-04-24T01:08:00;1.88;;;1.00;;
47413;SDS011;33163;0.000;0.000;2023-04-24T01:10:29;2.63;;;0.70;;
47413;SDS011;33163;0.000;0.000;2023-04-24T01:12:58;1.38;;;0.77;;
47413;SDS011;33163;0.000;0.000;2023-04-24T01:15:25;2.40;;;0.85;;
47413;SDS011;33163;0.000;0.000;2023-04-24T01:17:52;1.92;;;0.77;;
47413;SDS011;33163;0.000;0.000;2023-04-24T01:20:19;2.03;;;0.57;;
47413;SDS011;33163;0.000;0.000;2023-04-24T01:22:48;1.70;;;0.60;;
47413;SDS011;33163;0.000;0.000;2023-04-24T01:25:14;2.25;;;0.75;;
47413;SDS011;33163;0.000;0.000;2023-04-24T01:27:41;1.40;;;0.68;;
47413;SDS011;33163;0.000;0.000;2023-04-24T01:30:08;2.22;;;0.88;;
47413;SDS011;33163;0.000;0.000;2023-04-24T01:32:36;1.33;;;0.70;;
47413;SDS011;33163;0.000;0.000;2023-04-24T01:35:03;2.10;;;0.88;;
47413;SDS011;33163;0.000;0.000;2023-04-24T01:37:31;1.48;;;0.80;;
47413;SDS011;33163;0.000;0.000;2023-04-24T01:39:59;1.70;;;0.95;;
47413;SDS011;33163;0.000;0.000;2023-04-24T01:42:26;1.75;;;0.52;;
47413;SDS011;33163;0.000;0.000;2023-04-24T01:44:53;1.40;;;0.70;;
47413;SDS011;33163;0.000;0.000;2023-04-24T01:47:20;1.48;;;0.93;;
47413;SDS011;33163;0.000;0.000;2023-04-24T01:49:47;1.05;;;0.70;;
47413;SDS011;33163;0.000;0.000;2023-04-24T01:52:15;0.98;;;0.60;;
47413;SDS011;33163;0.000;0.000;2023-04-24T01:54:42;1.42;;;0.70;;
47413;SDS011;33163;0.000;0.000;2023-04-24T01:57:11;0.80;;;0.70;;
47413;SDS011;33163;0.000;0.000;2023-04-24T01:59:37;1.27;;;0.70;;
47413;SDS011;33163;0.000;0.000;2023-04-24T02:02:04;1.85;;;0.70;;
47413;SDS011;33163;0.000;0.000;2023-04-24T02:04:31;2.45;;;0.93;;
47413;SDS011;33163;0.000;0.000;2023-04-24T02:06:59;1.75;;;0.77;;
47413;SDS011;33163;0.000;0.000;2023-04-24T02:09:26;2.13;;;0.73;;
47413;SDS011;33163;0.000;0.000;2023-04-24T02:11:52;0.73;;;0.55;;
47413;SDS011;33163;0.000;0.000;2023-04-24T02:14:20;1.83;;;0.60;;
47413;SDS011;33163;0.000;0.000;2023-04-24T02:16:47;2.15;;;0.90;;
47413;SDS011;33163;0.000;0.000;2023-04-24T02:19:14;1.08;;;0.90;;
47413;SDS011;33163;0.000;0.000;2023-04-24T02:21:41;2.90;;;0.88;;
47413;SDS011;33163;0.000;0.000;2023-04-24T02:24:07;2.55;;;1.17;;
47413;SDS011;33163;0.000;0.000;2023-04-24T02:26:34;3.28;;;0.55;;
47413;SDS011;33163;0.000;0.000;2023-04-24T02:29:01;1.17;;;0.63;;
47413;SDS011;33163;0.000;0.000;2023-04-24T02:31:29;1.35;;;0.75;;
47413;SDS011;33163;0.000;0.000;2023-04-24T02:33:56;2.25;;;0.73;;
47413;SDS011;33163;0.000;0.000;2023-04-24T02:36:22;1.05;;;0.55;;
47413;SDS011;33163;0.000;0.000;2023-04-24T02:38:49;2.08;;;0.70;;
47413;SDS011;33163;0.000;0.000;2023-04-24T02:41:16;0.77;;;0.63;;
47413;SDS011;33163;0.000;0.000;2023-04-24T02:43:42;0.70;;;0.60;;
47413;SDS011;33163;0.000;0.000;2023-04-24T02:46:09;2.33;;;0.75;;
47413;SDS011;33163;0.000;0.000;2023-04-24T02:48:37;1.58;;;0.52;;
47413;SDS011;33163;0.000;0.000;2023-04-24T02:51:04;1.02;;;0.52;;
47413;SDS011;33163;0.000;0.000;2023-04-24T02:53:31;1.80;;;0.70;;
47413;SDS011;33163;0.000;0.000;2023-04-24T02:55:58;1.27;;;0.65;;
47413;SDS011;33163;0.000;0.000;2023-04-24T02:58:24;0.70;;;0.70;;
47413;SDS011;33163;0.000;0.000;2023-04-24T03:00:53;1.35;;;0.60;;
47413;SDS011;33163;0.000;0.000;2023-04-24T03:03:20;0.65;;;0.50;;
47413;SDS011;33163;0.000;0.000;2023-04-24T03:05:48;1.38;;;0.60;;
47413;SDS011;33163;0.000;0.000;2023-04-24T03:08:15;0.75;;;0.70;;
47413;SDS011;33163;0.000;0.000;2023-04-24T03:10:42;0.50;;;0.50;;
47413;SDS011;33163;0.000;0.000;2023-04-24T03:13:09;0.75;;;0.50;;
47413;SDS011;33163;0.000;0.000;2023-04-24T03:15:36;0.52;;;0.50;;
47413;SDS011;33163;0.000;0.000;2023-04-24T03:18:03;1.83;;;0.60;;
47413;SDS011;33163;0.000;0.000;2023-04-24T03:20:29;1.92;;;0.80;;
47413;SDS011;33163;0.000;0.000;2023-04-24T03:22:57;2.58;;;0.40;;
47413;SDS011;33163;0.000;0.000;2023-04-24T03:25:24;0.57;;;0.50;;
47413;SDS011;33163;0.000;0.000;2023-04-24T03:27:51;1.33;;;0.65;;
47413;SDS011;33163;0.000;0.000;2023-04-24T03:30:19;1.33;;;0.55;;
47413;SDS011;33163;0.000;0.000;2023-04-24T03:32:46;2.17;;;0.80;;
47413;SDS011;33163;0.000;0.000;2023-04-24T03:35:13;0.95;;;0.60;;
47413;SDS011;33163;0.000;0.000;2023-04-24T03:37:40;3.60;;;0.95;;
47413;SDS011;33163;0.000;0.000;2023-04-24T03:40:08;1.85;;;0.57;;
47413;SDS011;33163;0.000;0.000;2023-04-24T03:42:35;1.75;;;0.60;;
47413;SDS011;33163;0.000;0.000;2023-04-24T03:45:02;0.73;;;0.60;;
47413;SDS011;33163;0.000;0.000;2023-04-24T03:47:29;0.75;;;0.60;;
47413;SDS011;33163;0.000;0.000;2023-04-24T03:49:56;3.33;;;1.08;;
47413;SDS011;33163;0.000;0.000;2023-04-24T03:52:23;0.68;;;0.60;;
47413;SDS011;33163;0.000;0.000;2023-04-24T03:54:49;1.38;;;0.40;;
47413;SDS011;33163;0.000;0.000;2023-04-24T03:57:17;1.17;;;0.50;;
47413;SDS011;33163;0.000;0.000;2023-04-24T03:59:44;0.77;;;0.47;;
47413;SDS011;33163;0.000;0.000;2023-04-24T04:02:11;0.47;;;0.47;;
47413;SDS011;33163;0.000;0.000;2023-04-24T04:04:38;0.77;;;0.50;;
47413;SDS011;33163;0.000;0.000;2023-04-24T04:07:04;0.82;;;0.50;;
47413;SDS011;33163;0.000;0.000;2023-04-24T04:09:31;0.65;;;0.40;;
47413;SDS011;33163;0.000;0.000;2023-04-24T04:11:58;0.60;;;0.60;;
47413;SDS011;33163;0.000;0.000;2023-04-24T04:14:27;1.55;;;0.52;;
47413;SDS011;33163;0.000;0.000;2023-04-24T04:16:54;1.13;;;0.50;;
47413;SDS011;33163;0.000;0.000;2023-04-24T04:19:21;2.15;;;0.70;;
47413;SDS011;33163;0.000;0.000;2023-04-24T04:21:48;1.27;;;0.68;;
47413;SDS011;33163;0.000;0.000;2023-04-24T04:24:18;2.72;;;0.60;;
47413;SDS011;33163;0.000;0.000;2023-04-24T04:26:45;1.33;;;0.70;;
47413;SDS011;33163;0.000;0.000;2023-04-24T04:29:12;0.85;;;0.63;;
47413;SDS011;33163;0.000;0.000;2023-04-24T04:31:41;1.40;;;0.93;;
47413;SDS011;33163;0.000;0.000;2023-04-24T04:34:08;1.65;;;0.68;;
47413;SDS011;33163;0.000;0.000;2023-04-24T04:36:35;2.08;;;0.80;;
47413;SDS011;33163;0.000;0.000;2023-04-24T04:39:03;1.40;;;0.75;;
47413;SDS011;33163;0.000;0.000;2023-04-24T04:41:29;1.17;;;0.90;;
47413;SDS011;33163;0.000;0.000;2023-04-24T04:43:57;1.85;;;0.80;;
47413;SDS011;33163;0.000;0.000;2023-04-24T04:46:24;0.73;;;0.70;;
47413;SDS011;33163;0.000;0.000;2023-04-24T04:48:52;1.15;;;0.70;;
47413;SDS011;33163;0.000;0.000;2023-04-24T04:51:19;1.17;;;0.70;;
47413;SDS011;33163;0.000;0.000;2023-04-24T04:53:46;2.90;;;0.95;;
47413;SDS011;33163;0.000;0.000;2023-04-24T04:56:13;2.15;;;0.80;;
47413;SDS011;33163;0.000;0.000;2023-04-24T04:58:40;1.73;;;0.98;;
47413;SDS011;33163;0.000;0.000;2023-04-24T05:01:06;3.15;;;1.20;;
47413;SDS011;33163;0.000;0.000;2023-04-24T05:03:33;3.22;;;1.33;;
47413;SDS011;33163;0.000;0.000;2023-04-24T05:06:02;3.03;;;1.30;;
47413;SDS011;33163;0.000;0.000;2023-04-24T05:08:29;1.30;;;1.17;;
47413;SDS011;33163;0.000;0.000;2023-04-24T05:10:56;4.47;;;1.80;;
47413;SDS011;33163;0.000;0.000;2023-04-24T05:13:22;2.75;;;1.00;;
47413;SDS011;33163;0.000;0.000;2023-04-24T05:15:49;4.05;;;1.40;;
47413;SDS011;33163;0.000;0.000;2023-04-24T05:18:16;2.80;;;1.02;;
47413;SDS011;33163;0.000;0.000;2023-04-24T05:20:43;3.85;;;1.35;;
47413;SDS011;33163;0.000;0.000;2023-04-24T05:23:11;4.15;;;1.20;;
47413;SDS011;33163;0.000;0.000;2023-04-24T05:25:38;5.20;;;1.45;;
47413;SDS011;33163;0.000;0.000;2023-04-24T05:28:05;2.75;;;1.20;;
47413;SDS011;33163;0.000;0.000;2023-04-24T05:30:32;2.85;;;1.27;;
47413;SDS011;33163;0.000;0.000;2023-04-24T05:32:58;4.13;;;1.40;;
47413;SDS011;33163;0.000;0.000;2023-04-24T05:35:25;3.53;;;1.70;;
47413;SDS011;33163;0.000;0.000;2023-04-24T05:37:52;4.22;;;1.85;;
47413;SDS011;33163;0.000;0.000;2023-04-24T05:40:20;3.67;;;1.75;;
47413;SDS011;33163;0.000;0.000;2023-04-24T05:42:47;6.93;;;2.00;;
47413;SDS011;33163;0.000;0.000;2023-04-24T05:45:14;6.43;;;1.85;;
47413;SDS011;33163;0.000;0.000;2023-04-24T05:47:41;5.63;;;1.63;;
47413;SDS011;33163;0.000;0.000;2023-04-24T05:50:09;6.60;;;1.80;;
47413;SDS011;33163;0.000;0.000;2023-04-24T05:52:36;7.35;;;2.10;;
47413;SDS011;33163;0.000;0.000;2023-04-24T05:55:03;4.63;;;1.92;;
47413;SDS011;33163;0.000;0.000;2023-04-24T05:57:31;12.05;;;2.22;;
47413;SDS011;33163;0.000;0.000;2023-04-24T05:59:58;9.35;;;2.35;;
47413;SDS011;33163;0.000;0.000;2023-04-24T06:02:25;6.22;;;1.98;;
47413;SDS011;33163;0.000;0.000;2023-04-24T06:04:52;10.27;;;2.40;;
47413;SDS011;33163;0.000;0.000;2023-04-24T06:07:19;4.57;;;2.25;;
47413;SDS011;33163;0.000;0.000;2023-04-24T06:09:46;6.13;;;1.70;;
47413;SDS011;33163;0.000;0.000;2023-04-24T06:12:13;5.55;;;2.47;;
47413;SDS011;33163;0.000;0.000;2023-04-24T06:14:41;7.30;;;2.22;;
47413;SDS011;33163;0.000;0.000;2023-04-24T06:17:07;10.00;;;3.50;;
47413;SDS011;33163;0.000;0.000;2023-04-24T06:19:34;15.38;;;2.88;;
47413;SDS011;33163;0.000;0.000;2023-04-24T06:22:01;8.27;;;2.25;;
47413;SDS011;33163;0.000;0.000;2023-04-24T06:24:28;6.80;;;2.42;;
47413;SDS011;33163;0.000;0.000;2023-04-24T06:26:55;11.95;;;2.95;;
47413;SDS011;33163;0.000;0.000;2023-04-24T06:29:22;7.28;;;2.58;;
47413;SDS011;33163;0.000;0.000;2023-04-24T06:31:50;18.05;;;2.92;;
47413;SDS011;33163;0.000;0.000;2023-04-24T06:34:17;13.88;;;2.55;;
47413;SDS011;33163;0.000;0.000;2023-04-24T06:36:44;9.55;;;2.47;;
47413;SDS011;33163;0.000;0.000;2023-04-24T06:39:11;10.20;;;3.00;;
47413;SDS011;33163;0.000;0.000;2023-04-24T06:41:38;16.27;;;3.40;;
47413;SDS011;33163;0.000;0.000;2023-04-24T06:44:05;9.25;;;2.50;;
47413;SDS011;33163;0.000;0.000;2023-04-24T06:46:31;9.10;;;3.00;;
47413;SDS011;33163;0.000;0.000;2023-04-24T06:49:00;11.40;;;2.80;;
47413;SDS011;33163;0.000;0.000;2023-04-24T06:51:26;8.43;;;2.65;;
47413;SDS011;33163;0.000;0.000;2023-04-24T06:53:53;9.73;;;2.78;;
47413;SDS011;33163;0.000;0.000;2023-04-24T06:56:21;9.75;;;2.85;;
47413;SDS011;33163;0.000;0.000;2023-04-24T06:58:48;11.27;;;2.60;;
47413;SDS011;33163;0.000;0.000;2023-04-24T07:01:15;12.48;;;2.95;;
47413;SDS011;33163;0.000;0.000;2023-04-24T07:03:41;8.77;;;2.80;;
47413;SDS011;33163;0.000;0.000;2023-04-24T07:06:09;9.57;;;3.13;;
47413;SDS011;33163;0.000;0.000;2023-04-24T07:08:37;11.00;;;3.08;;
47413;SDS011;33163;0.000;0.000;2023-04-24T07:11:04;12.15;;;2.53;;
47413;SDS011;33163;0.000;0.000;2023-04-24T07:13:31;10.55;;;2.45;;
47413;SDS011;33163;0.000;0.000;2023-04-24T07:16:00;9.90;;;2.38;;
47413;SDS011;33163;0.000;0.000;2023-04-24T07:18:27;9.40;;;2.60;;
47413;SDS011;33163;0.000;0.000;2023-04-24T07:20:54;11.05;;;3.42;;
47413;SDS011;33163;0.000;0.000;2023-04-24T07:23:22;9.48;;;2.33;;
47413;SDS011;33163;0.000;0.000;2023-04-24T07:25:49;8.15;;;2.15;;
47413;SDS011;33163;0.000;0.000;2023-04-24T07:28:16;7.03;;;2.22;;
47413;SDS011;33163;0.000;0.000;2023-04-24T07:30:43;15.93;;;3.63;;
47413;SDS011;33163;0.000;0.000;2023-04-24T07:33:10;12.23;;;3.10;;
47413;SDS011;33163;0.000;0.000;2023-04-24T07:35:38;11.38;;;3.15;;
47413;SDS011;33163;0.000;0.000;2023-04-24T07:38:05;6.85;;;2.08;;
47413;SDS011;33163;0.000;0.000;2023-04-24T07:40:33;8.10;;;2.60;;
47413;SDS011;33163;0.000;0.000;2023-04-24T07:42:59;10.60;;;2.95;;
47413;SDS011;33163;0.000;0.000;2023-04-24T07:45:26;8.30;;;2.50;;
47413;SDS011;33163;0.000;0.000;2023-04-24T07:47:53;13.20;;;2.70;;
47413;SDS011;33163;0.000;0.000;2023-04-24T07:50:20;11.80;;;2.65;;
47413;SDS011;33163;0.000;0.000;2023-04-24T07:52:47;10.52;;;2.70;;
47413;SDS011;33163;0.000;0.000;2023-04-24T07:55:14;7.35;;;2.40;;
47413;SDS011;33163;0.000;0.000;2023-04-24T07:57:42;11.95;;;2.78;;
47413;SDS011;33163;0.000;0.000;2023-04-24T08:00:09;10.02;;;2.40;;
47413;SDS011;33163;0.000;0.000;2023-04-24T08:02:37;13.13;;;2.83;;
47413;SDS011;33163;0.000;0.000;2023-04-24T08:05:04;13.88;;;2.72;;
47413;SDS011;33163;0.000;0.000;2023-04-24T08:07:31;7.30;;;2.40;;
47413;SDS011;33163;0.000;0.000;2023-04-24T08:10:00;6.03;;;2.22;;
47413;SDS011;33163;0.000;0.000;2023-04-24T08:12:27;12.65;;;3.08;;
47413;SDS011;33163;0.000;0.000;2023-04-24T08:14:55;10.65;;;2.40;;
47413;SDS011;33163;0.000;0.000;2023-04-24T08:17:23;9.23;;;2.72;;
47413;SDS011;33163;0.000;0.000;2023-04-24T08:19:50;7.45;;;2.13;;
47413;SDS011;33163;0.000;0.000;2023-04-24T08:22:18;11.80;;;2.45;;
47413;SDS011;33163;0.000;0.000;2023-04-24T08:24:44;10.70;;;3.13;;
47413;SDS011;33163;0.000;0.000;2023-04-24T08:27:11;11.43;;;2.38;;
47413;SDS011;33163;0.000;0.000;2023-04-24T08:29:38;14.48;;;2.15;;
47413;SDS011;33163;0.000;0.000;2023-04-24T08:32:06;10.43;;;3.08;;
47413;SDS011;33163;0.000;0.000;2023-04-24T08:34:33;9.60;;;2.20;;
47413;SDS011;33163;0.000;0.000;2023-04-24T08:37:00;8.52;;;2.60;;
47413;SDS011;33163;0.000;0.000;2023-04-24T08:39:26;14.25;;;2.42;;
47413;SDS011;33163;0.000;0.000;2023-04-24T08:41:54;8.23;;;2.45;;
47413;SDS011;33163;0.000;0.000;2023-04-24T08:44:21;7.65;;;2.45;;
47413;SDS011;33163;0.000;0.000;2023-04-24T08:46:48;16.42;;;2.63;;
47413;SDS011;33163;0.000;0.000;2023-04-24T08:49:17;8.13;;;2.42;;
47413;SDS011;33163;0.000;0.000;2023-04-24T08:51:45;8.68;;;2.70;;
47413;SDS011;33163;0.000;0.000;2023-04-24T08:54:13;10.93;;;2.75;;
47413;SDS011;33163;0.000;0.000;2023-04-24T08:56:40;8.98;;;2.38;;
47413;SDS011;33163;0.000;0.000;2023-04-24T08:59:10;7.38;;;2.70;;
47413;SDS011;33163;0.000;0.000;2023-04-24T09:01:38;7.72;;;2.10;;
47413;SDS011;33163;0.000;0.000;2023-04-24T09:04:07;7.43;;;2.00;;
47413;SDS011;33163;0.000;0.000;2023-04-24T09:06:37;6.05;;;2.00;;
47413;SDS011;33163;0.000;0.000;2023-04-24T09:09:04;8.10;;;1.88;;
47413;SDS011;33163;0.000;0.000;2023-04-24T09:11:31;7.88;;;2.65;;
47413;SDS011;33163;0.000;0.000;2023-04-24T09:13:58;10.27;;;1.80;;
47413;SDS011;33163;0.000;0.000;2023-04-24T09:16:25;5.60;;;1.95;;
47413;SDS011;33163;0.000;0.000;2023-04-24T09:18:52;7.30;;;1.95;;
47413;SDS011;33163;0.000;0.000;2023-04-24T09:21:20;7.28;;;2.10;;
47413;SDS011;33163;0.000;0.000;2023-04-24T09:23:58;6.82;;;1.73;;
47413;SDS011;33163;0.000;0.000;2023-04-24T09:26:26;5.47;;;1.63;;
47413;SDS011;33163;0.000;0.000;2023-04-24T09:28:57;6.35;;;1.60;;
47413;SDS011;33163;0.000;0.000;2023-04-24T09:31:26;4.43;;;1.73;;
47413;SDS011;33163;0.000;0.000;2023-04-24T09:33:54;5.47;;;2.05;;
47413;SDS011;33163;0.000;0.000;2023-04-24T09:36:28;6.50;;;1.55;;
47413;SDS011;33163;0.000;0.000;2023-04-24T09:38:59;4.78;;;2.03;;
47413;SDS011;33163;0.000;0.000;2023-04-24T09:41:28;6.80;;;1.63;;
47413;SDS011;33163;0.000;0.000;2023-04-24T09:43:55;5.53;;;1.83;;
47413;SDS011;33163;0.000;0.000;2023-04-24T09:46:29;3.92;;;1.70;;
47413;SDS011;33163;0.000;0.000;2023-04-24T09:48:56;5.25;;;1.83;;
47413;SDS011;33163;0.000;0.000;2023-04-24T09:51:32;6.80;;;1.50;;
47413;SDS011;33163;0.000;0.000;2023-04-24T09:54:02;4.60;;;1.80;;
47413;SDS011;33163;0.000;0.000;2023-04-24T09:56:32;6.65;;;2.08;;
47413;SDS011;33163;0.000;0.000;2023-04-24T09:59:06;5.68;;;1.73;;
47413;SDS011;33163;0.000;0.000;2023-04-24T10:01:33;5.63;;;1.60;;
47413;SDS011;33163;0.000;0.000;2023-04-24T10:04:00;4.70;;;1.58;;
47413;SDS011;33163;0.000;0.000;2023-04-24T10:06:31;3.67;;;1.48;;
47413;SDS011;33163;0.000;0.000;2023-04-24T10:08:59;6.32;;;1.67;;
47413;SDS011;33163;0.000;0.000;2023-04-24T10:11:27;8.93;;;1.60;;
47413;SDS011;33163;0.000;0.000;2023-04-24T10:13:55;5.57;;;1.38;;
47413;SDS011;33163;0.000;0.000;2023-04-24T10:16:22;4.85;;;1.95;;
47413;SDS011;33163;0.000;0.000;2023-04-24T10:18:52;5.72;;;1.70;;
47413;SDS011;33163;0.000;0.000;2023-04-24T10:21:19;5.38;;;1.92;;
47413;SDS011;33163;0.000;0.000;2023-04-24T10:23:46;7.78;;;2.00;;
47413;SDS011;33163;0.000;0.000;2023-04-24T10:26:15;4.78;;;1.20;;
47413;SDS011;33163;0.000;0.000;2023-04-24T10:28:46;3.95;;;1.67;;
47413;SDS011;33163;0.000;0.000;2023-04-24T10:31:13;5.20;;;1.73;;
47413;SDS011;33163;0.000;0.000;2023-04-24T10:33:41;4.60;;;1.38;;
47413;SDS011;33163;0.000;0.000;2023-04-24T10:36:09;6.80;;;1.75;;
47413;SDS011;33163;0.000;0.000;2023-04-24T10:38:38;5.53;;;1.55;;
47413;SDS011;33163;0.000;0.000;2023-04-24T10:41:07;5.30;;;1.88;;
47413;SDS011;33163;0.000;0.000;2023-04-24T10:43:39;4.07;;;1.27;;
47413;SDS011;33163;0.000;0.000;2023-04-24T10:46:08;5.75;;;1.38;;
47413;SDS011;33163;0.000;0.000;2023-04-24T10:48:36;6.15;;;1.30;;
47413;SDS011;33163;0.000;0.000;2023-04-24T10:51:10;9.32;;;1.92;;
47413;SDS011;33163;0.000;0.000;2023-04-24T10:53:39;7.03;;;2.03;;
47413;SDS011;33163;0.000;0.000;2023-04-24T10:56:06;8.25;;;2.08;;
47413;SDS011;33163;0.000;0.000;2023-04-24T10:58:38;9.10;;;1.67;;
47413;SDS011;33163;0.000;0.000;2023-04-24T11:01:07;5.22;;;1.50;;
47413;SDS011;33163;0.000;0.000;2023-04-24T11:03:34;4.57;;;1.35;;
47413;SDS011;33163;0.000;0.000;2023-04-24T11:06:03;4.10;;;1.20;;
47413;SDS011;33163;0.000;0.000;2023-04-24T11:08:32;3.95;;;1.52;;
47413;SDS011;33163;0.000;0.000;2023-04-24T11:11:03;7.13;;;1.48;;
47413;SDS011;33163;0.000;0.000;2023-04-24T11:16:29;5.72;;;1.40;;
47413;SDS011;33163;0.000;0.000;2023-04-24T11:19:01;5.85;;;1.55;;
47413;SDS011;33163;0.000;0.000;2023-04-24T11:21:38;5.22;;;1.77;;
47413;SDS011;33163;0.000;0.000;2023-04-24T11:26:56;5.70;;;1.38;;
47413;SDS011;33163;0.000;0.000;2023-04-24T11:29:37;4.75;;;1.08;;
47413;SDS011;33163;0.000;0.000;2023-04-24T11:32:15;5.13;;;1.60;;
47413;SDS011;33163;0.000;0.000;2023-04-24T11:34:45;7.97;;;1.58;;
47413;SDS011;33163;0.000;0.000;2023-04-24T11:37:12;4.75;;;1.30;;
47413;SDS011;33163;0.000;0.000;2023-04-24T11:39:40;4.97;;;1.20;;
47413;SDS011;33163;0.000;0.000;2023-04-24T11:42:06;5.68;;;1.67;;
47413;SDS011;33163;0.000;0.000;2023-04-24T11:44:34;4.32;;;1.50;;
47413;SDS011;33163;0.000;0.000;2023-04-24T11:47:02;4.43;;;1.10;;
47413;SDS011;33163;0.000;0.000;2023-04-24T11:49:30;4.15;;;1.23;;
47413;SDS011;33163;0.000;0.000;2023-04-24T11:51:57;8.13;;;1.80;;
47413;SDS011;33163;0.000;0.000;2023-04-24T11:54:25;5.20;;;2.22;;
47413;SDS011;33163;0.000;0.000;2023-04-24T11:56:52;6.95;;;1.77;;
47413;SDS011;33163;0.000;0.000;2023-04-24T11:59:19;5.97;;;1.50;;
47413;SDS011;33163;0.000;0.000;2023-04-24T12:01:46;4.22;;;1.30;;
47413;SDS011;33163;0.000;0.000;2023-04-24T12:04:14;3.92;;;1.65;;
47413;SDS011;33163;0.000;0.000;2023-04-24T12:09:27;7.75;;;1.48;;
47413;SDS011;33163;0.000;0.000;2023-04-24T12:11:54;8.43;;;1.40;;
47413;SDS011;33163;0.000;0.000;2023-04-24T12:14:21;5.78;;;1.60;;
47413;SDS011;33163;0.000;0.000;2023-04-24T12:16:48;7.30;;;1.80;;
47413;SDS011;33163;0.000;0.000;2023-04-24T12:19:17;3.92;;;1.25;;
47413;SDS011;33163;0.000;0.000;2023-04-24T12:21:58;4.30;;;1.33;;
47413;SDS011;33163;0.000;0.000;2023-04-24T12:24:27;5.38;;;1.30;;
47413;SDS011;33163;0.000;0.000;2023-04-24T12:26:53;4.28;;;1.20;;
47413;SDS011;33163;0.000;0.000;2023-04-24T12:29:21;5.82;;;1.63;;
47413;SDS011;33163;0.000;0.000;2023-04-24T12:31:48;8.30;;;2.17;;
47413;SDS011;33163;0.000;0.000;2023-04-24T12:34:19;6.68;;;1.60;;
47413;SDS011;33163;0.000;0.000;2023-04-24T12:36:46;6.95;;;1.55;;
47413;SDS011;33163;0.000;0.000;2023-04-24T12:39:18;8.07;;;1.63;;
47413;SDS011;33163;0.000;0.000;2023-04-24T12:41:50;6.85;;;1.45;;
47413;SDS011;33163;0.000;0.000;2023-04-24T12:44:28;8.95;;;1.75;;
47413;SDS011;33163;0.000;0.000;2023-04-24T12:46:55;6.53;;;1.98;;
47413;SDS011;33163;0.000;0.000;2023-04-24T12:49:22;6.20;;;1.88;;
47413;SDS011;33163;0.000;0.000;2023-04-24T12:51:49;6.35;;;2.10;;
47413;SDS011;33163;0.000;0.000;2023-04-24T12:54:15;3.80;;;1.80;;
47413;SDS011;33163;0.000;0.000;2023-04-24T12:56:43;6.47;;;1.80;;
47413;SDS011;33163;0.000;0.000;2023-04-24T12:59:10;6.53;;;2.00;;
47413;SDS011;33163;0.000;0.000;2023-04-24T13:01:37;8.18;;;2.10;;
47413;SDS011;33163;0.000;0.000;2023-04-24T13:04:04;8.13;;;1.83;;
47413;SDS011;33163;0.000;0.000;2023-04-24T13:06:31;5.60;;;1.83;;
47413;SDS011;33163;0.000;0.000;2023-04-24T13:08:58;7.95;;;1.92;;
47413;SDS011;33163;0.000;0.000;2023-04-24T13:11:26;4.55;;;1.70;;
47413;SDS011;33163;0.000;0.000;2023-04-24T13:13:54;8.63;;;1.80;;
47413;SDS011;33163;0.000;0.000;2023-04-24T13:16:21;6.03;;;2.10;;
47413;SDS011;33163;0.000;0.000;2023-04-24T13:18:48;6.43;;;1.42;;
47413;SDS011;33163;0.000;0.000;2023-04-24T13:21:15;9.15;;;1.45;;
47413;SDS011;33163;0.000;0.000;2023-04-24T13:23:42;4.80;;;1.70;;
47413;SDS011;33163;0.000;0.000;2023-04-24T13:26:08;9.93;;;2.35;;
47413;SDS011;33163;0.000;0.000;2023-04-24T13:28:36;8.68;;;2.28;;
47413;SDS011;33163;0.000;0.000;2023-04-24T13:31:03;8.40;;;1.92;;
47413;SDS011;33163;0.000;0.000;2023-04-24T13:33:31;7.68;;;2.10;;
47413;SDS011;33163;0.000;0.000;2023-04-24T13:35:58;8.00;;;1.98;;
47413;SDS011;33163;0.000;0.000;2023-04-24T13:38:24;7.03;;;1.90;;
47413;SDS011;33163;0.000;0.000;2023-04-24T13:40:51;8.43;;;2.25;;
47413;SDS011;33163;0.000;0.000;2023-04-24T13:43:18;7.25;;;2.53;;
47413;SDS011;33163;0.000;0.000;2023-04-24T13:45:46;5.65;;;2.35;;
47413;SDS011;33163;0.000;0.000;2023-04-24T13:48:13;5.75;;;2.47;;
47413;SDS011;33163;0.000;0.000;2023-04-24T13:50:40;5.03;;;2.00;;
47413;SDS011;33163;0.000;0.000;2023-04-24T13:53:07;6.15;;;1.92;;
47413;SDS011;33163;0.000;0.000;2023-04-24T13:55:34;6.88;;;2.17;;
47413;SDS011;33163;0.000;0.000;2023-04-24T13:58:01;4.72;;;1.58;;
47413;SDS011;33163;0.000;0.000;2023-04-24T14:00:28;5.05;;;2.50;;
47413;SDS011;33163;0.000;0.000;2023-04-24T14:02:57;6.95;;;2.20;;
47413;SDS011;33163;0.000;0.000;2023-04-24T14:05:24;9.00;;;2.42;;
47413;SDS011;33163;0.000;0.000;2023-04-24T14:07:50;7.47;;;2.35;;
47413;SDS011;33163;0.000;0.000;2023-04-24T14:10:17;9.40;;;2.45;;
47413;SDS011;33163;0.000;0.000;2023-04-24T14:12:44;6.78;;;1.92;;
47413;SDS011;33163;0.000;0.000;2023-04-24T14:15:11;6.97;;;2.25;;
47413;SDS011;33163;0.000;0.000;2023-04-24T14:17:38;7.55;;;2.47;;
47413;SDS011;33163;0.000;0.000;2023-04-24T14:20:07;10.20;;;2.38;;
47413;SDS011;33163;0.000;0.000;2023-04-24T14:22:34;8.15;;;2.63;;
47413;SDS011;33163;0.000;0.000;2023-04-24T14:25:01;8.90;;;2.28;;
47413;SDS011;33163;0.000;0.000;2023-04-24T14:27:28;9.63;;;2.65;;
47413;SDS011;33163;0.000;0.000;2023-04-24T14:29:55;6.30;;;2.20;;
47413;SDS011;33163;0.000;0.000;2023-04-24T14:32:22;9.95;;;3.00;;
47413;SDS011;33163;0.000;0.000;2023-04-24T14:34:48;11.27;;;3.13;;
47413;SDS011;33163;0.000;0.000;2023-04-24T14:37:17;8.45;;;2.28;;
47413;SDS011;33163;0.000;0.000;2023-04-24T14:39:44;5.95;;;1.98;;
47413;SDS011;33163;0.000;0.000;2023-04-24T14:42:11;8.85;;;2.47;;
47413;SDS011;33163;0.000;0.000;2023-04-24T14:44:38;10.25;;;2.20;;
47413;SDS011;33163;0.000;0.000;2023-04-24T14:47:05;11.75;;;3.35;;
47413;SDS011;33163;0.000;0.000;2023-04-24T14:49:32;8.40;;;2.42;;
47413;SDS011;33163;0.000;0.000;2023-04-24T14:51:58;4.90;;;2.50;;
47413;SDS011;33163;0.000;0.000;2023-04-24T14:54:26;7.00;;;2.15;;
47413;SDS011;33163;0.000;0.000;2023-04-24T14:56:53;10.40;;;3.95;;
47413;SDS011;33163;0.000;0.000;2023-04-24T14:59:21;7.05;;;2.67;;
47413;SDS011;33163;0.000;0.000;2023-04-24T15:01:48;6.32;;;2.28;;
47413;SDS011;33163;0.000;0.000;2023-04-24T15:04:16;7.65;;;2.13;;
47413;SDS011;33163;0.000;0.000;2023-04-24T15:06:43;9.10;;;2.60;;
47413;SDS011;33163;0.000;0.000;2023-04-24T15:09:10;11.38;;;2.90;;
47413;SDS011;33163;0.000;0.000;2023-04-24T15:11:38;7.75;;;2.58;;